Medicine Bow, WY

5:59 PM MDT on October 22, 2014 (GMT -0600)
Elk Mountain | Change Station
CLOSE
Current Station
Airport
Location: Elk Mountain,
Elevation: 7300 ft
Nearby Weather Stations

Elev 7300 ft 41.73 °N, 106.46 °W | Updated 24 minutes ago

Clear
Clear
50 °F
Feels Like 50 °F
N
20
Wind Variable Wind from WSW
Gusts 30 mph

Today
High -- | Low -- °F
--% Chance of Precip.
Yesterday
High -- | Low -- °F
Precip. -- in
7:25 AM 6:12 PM
Waning Crescent, 1% visible
Pressure 30.14 in
Visibility 10.0 miles
Clouds Clear
Dew Point 18 °F
Humidity 28%
Rainfall 0.00 in
Snow Depth Not available.
UV 0 out of 12
Pollen 2.30 out of 12
Air Quality Not available.
Flu Activity Not available.
METAR KEHY 222335Z AUTO 24017G26KT 10SM CLR 10/M08 A3014 RMK AO2

More Conditions Fewer Conditions

Pressure 30.14 in
Visibility 10.0 miles
Clouds Clear
Dew Point 18 °F
Humidity 28%
Rainfall 0.00 in
Snow Depth Not available.
UV 0 out of 12
Pollen 2.30 out of 12
Air Quality Not available.
Flu Activity Not available.
METAR KEHY 222335Z AUTO 24017G26KT 10SM CLR 10/M08 A3014 RMK AO2

More Conditions Fewer Conditions

10-Day Weather Forecast

Almanac

Astronomy

Oct. 22, 2014 Rise Set
Actual Time 7:25 AM MDT 6:12 PM MDT
Civil Twilight 6:56 AM MDT 6:40 PM MDT
Nautical Twilight 6:24 AM MDT 7:13 PM MDT
Astronomical Twilight 5:51 AM MDT 7:45 PM MDT
Moon 6:08 AM MDT 5:41 PM MDT
Length of Visible Light 11h 43m
Length of Day
10h 46m
Tomorrow will be 2m 40s shorter.
Waning Crescent, 1% of the Moon is Illuminated
Today
Waning Crescent
Oct 23
New
Oct 30
First Quarter
Nov 6
Full
Nov 14
Last Quarter

Today's Extremes

State Highs State Lows

Community

WunderPhotos

Upload Photos

1,764,080 photos uploaded!

WunderBlogs® & News

Nearby

Snow Depth

Station Depth Elevation
Reno Hill 0 in 8500 ft
Sand Lake 4 in 10050 ft
Casper Mountain 0 in 7850 ft
Brooklyn Lake 0 in 10220 ft
Cinnabar Park 1 in 9690 ft

Earthquake Activity

City Distance Mag. Time & Date
No recent earthquake activity has been reported nearby.
Minimum magnitude displayed is 2.5.

Coastal Water Temperatures

Place Temperature
No Stations Reporting

Nearby Weather Stations